Peak Hill, New South Wales

9:43 PM AEST on July 27, 2016 (GMT +1000)
Dubbo | | Change Station

Elev 902 ft 32.22 °S, 148.57 °E | Updated 13 minutes ago

Clear
Clear
45 °F
Feels Like 40 °F
N
8
Wind Variable Wind from SSW

Today
High -- | Low -- °F
--% Chance of Precip.
Yesterday
High -- | Low -- °F
Precip. -- in
Pressure 30.24 in
Visibility 6.2 miles
Clouds
Windchill 40 °F
Dew Point 39 °F
Humidity 81%
Rainfall 0.00 in
Snow Depth Not available.
7:01 AM 5:26 PM
Last Quarter, 44% visible
METAR YSDU 271130Z AUTO 21007KT 9999 // NCD 07/04 Q1024
Pressure 30.24 in
Visibility 6.2 miles
Clouds
Windchill 40 °F
Dew Point 39 °F
Humidity 81%
Rainfall 0.00 in
Snow Depth Not available.
7:01 AM 5:26 PM
Last Quarter, 44% visible
METAR YSDU 271130Z AUTO 21007KT 9999 // NCD 07/04 Q1024

10-Day Weather Forecast

No radar image for this location.
×

Almanac

Astronomy

Jul. 27, 2016 Rise Set
Actual Time
Civil Twilight
Nautical Twilight
Astronomical Twilight
Moon
Length of Visible Light
Length of Day
Tomorrow will be .
, % of the Moon is Illuminated

Today's Extremes

Country Highs Country Lows

Community

WunderPhotos

Upload Photos

1,927,828 photos uploaded!

WunderBlog® & News

Nearby

Air Quality

  Air Quality AQ Index Pollutant
Not available.

Snow Depth

Station Depth Elevation

Earthquake Activity

City Distance Mag. Time & Date
Minimum magnitude displayed is 2.5.

Coastal Water Temperatures

Place Temperature

Stations

Nearby Weather Stations

Station Location Temp. Windchill Dew Point Humidity Wind Precip. Elev Updated Type